createdAt,value
2019-04-23T00:03:21.775Z,15.70
2019-04-23T00:08:35.849Z,15.60
2019-04-23T00:24:04.790Z,15.10
2019-04-23T00:29:08.677Z,15.00
2019-04-23T00:34:09.256Z,15.00
2019-04-23T00:39:15.394Z,14.90
2019-04-23T00:44:38.123Z,14.90
2019-04-23T00:49:58.684Z,14.90
2019-04-23T00:54:48.847Z,15.20
2019-04-23T01:00:03.804Z,14.80
2019-04-23T01:05:05.175Z,14.50
2019-04-23T01:10:13.939Z,14.60
2019-04-23T01:15:25.489Z,14.70
2019-04-23T01:20:52.454Z,14.50
2019-04-23T01:25:57.705Z,14.20
2019-04-23T01:31:20.095Z,14.30
2019-04-23T01:36:28.391Z,14.30
2019-04-23T01:41:45.150Z,14.20
2019-04-23T01:46:49.307Z,14.10
2019-04-23T01:51:55.666Z,14.20
2019-04-23T01:57:06.288Z,14.10
2019-04-23T02:02:14.334Z,14.10
2019-04-23T02:07:24.361Z,14.00
2019-04-23T02:12:28.266Z,14.00
2019-04-23T02:17:38.316Z,13.70
2019-04-23T02:23:01.322Z,13.50
2019-04-23T02:53:53.599Z,12.90
2019-04-23T03:09:17.112Z,12.70
2019-04-23T03:14:27.189Z,12.70
2019-04-23T03:19:55.924Z,12.70
2019-04-23T03:46:16.207Z,12.50
2019-04-23T03:51:16.383Z,12.30
2019-04-23T03:56:37.766Z,12.30
2019-04-23T04:11:47.626Z,12.40
2019-04-23T04:17:03.519Z,12.00
2019-04-23T04:22:08.635Z,12.10
2019-04-23T04:32:22.077Z,11.90
2019-04-23T04:37:56.000Z,11.80
2019-04-23T04:42:43.674Z,11.80
2019-04-23T04:53:12.574Z,11.70
2019-04-23T04:58:12.876Z,11.80
2019-04-23T05:13:41.166Z,11.80
2019-04-23T05:23:50.444Z,11.80
2019-04-23T05:29:00.173Z,12.00
2019-04-23T05:34:04.543Z,11.90
2019-04-23T05:39:26.903Z,12.10
2019-04-23T05:44:21.231Z,12.20
2019-04-23T05:49:24.785Z,12.10
2019-04-23T05:54:43.245Z,12.30
2019-04-23T06:04:49.902Z,12.50
2019-04-23T06:15:18.055Z,12.90
2019-04-23T06:20:27.654Z,12.90
2019-04-23T06:30:48.977Z,13.20
2019-04-23T06:35:53.137Z,13.50
2019-04-23T06:40:55.497Z,13.60
2019-04-23T06:46:02.849Z,13.60
2019-04-23T06:51:12.588Z,13.70
2019-04-23T06:56:21.029Z,13.90
2019-04-23T07:01:30.193Z,14.50
2019-04-23T07:06:38.468Z,14.70
2019-04-23T07:11:40.225Z,15.20
2019-04-23T07:16:52.641Z,15.10
2019-04-23T07:22:12.116Z,14.80
2019-04-23T07:27:11.972Z,15.00
2019-04-23T07:32:32.833Z,15.70
2019-04-23T07:37:23.007Z,16.30
2019-04-23T07:48:10.889Z,16.80
2019-04-23T07:53:16.971Z,16.80
2019-04-23T07:58:23.429Z,16.90
2019-04-23T08:03:48.092Z,17.20
2019-04-23T08:08:42.457Z,16.70
2019-04-23T08:14:08.592Z,16.30
2019-04-23T08:18:57.664Z,16.50
2019-04-23T08:24:45.053Z,16.60
2019-04-23T08:29:43.941Z,17.10
2019-04-23T08:40:06.672Z,17.00
2019-04-23T08:50:40.373Z,17.50
2019-04-23T08:55:49.442Z,17.90
2019-04-23T09:06:06.493Z,18.00
2019-04-23T09:11:30.145Z,18.20
2019-04-23T09:16:22.313Z,18.60
2019-04-23T09:21:30.848Z,18.70
2019-04-23T09:26:47.977Z,18.70
2019-04-23T09:32:18.488Z,19.00
2019-04-23T09:37:18.734Z,18.90
2019-04-23T09:43:00.604Z,19.20
2019-04-23T09:48:18.305Z,19.50
2019-04-23T09:58:21.870Z,19.40
2019-04-23T10:03:21.239Z,19.50
2019-04-23T10:08:26.833Z,19.90
2019-04-23T10:13:26.132Z,20.50
2019-04-23T10:18:33.161Z,20.80
2019-04-23T10:23:41.142Z,20.50
2019-04-23T10:29:03.082Z,22.00
2019-04-23T10:34:10.345Z,22.50
2019-04-23T10:39:25.447Z,22.00
2019-04-23T10:44:46.608Z,22.10
2019-04-23T10:56:01.062Z,21.90
2019-04-23T11:06:25.031Z,21.50
2019-04-23T11:11:27.673Z,22.20
2019-04-23T11:21:42.775Z,21.60
2019-04-23T11:26:57.942Z,21.80
2019-04-23T11:32:05.974Z,22.00
2019-04-23T11:37:16.441Z,21.40
2019-04-23T11:42:18.145Z,22.20
2019-04-23T11:48:04.975Z,22.00
2019-04-23T11:52:42.806Z,22.70
2019-04-23T11:57:56.857Z,23.10
2019-04-23T12:03:07.422Z,22.90
2019-04-23T12:08:47.519Z,22.30
2019-04-23T12:14:03.709Z,22.90
2019-04-23T12:19:32.880Z,22.90
2019-04-23T12:29:29.267Z,23.20
2019-04-23T12:34:37.809Z,23.50
2019-04-23T12:39:43.993Z,23.60
2019-04-23T12:44:56.827Z,23.80
2019-04-23T12:55:23.371Z,23.80
2019-04-23T13:00:17.362Z,24.00
2019-04-23T13:05:21.411Z,24.10
2019-04-23T13:26:11.774Z,24.50
2019-04-23T13:31:22.370Z,25.00
2019-04-23T13:36:41.769Z,24.80
2019-04-23T13:41:40.844Z,24.80
2019-04-23T13:47:01.005Z,24.60
2019-04-23T13:52:12.795Z,24.70
2019-04-23T14:02:56.447Z,24.90
2019-04-23T14:07:32.699Z,25.10
2019-04-23T14:12:42.024Z,24.70
2019-04-23T14:18:00.015Z,24.70
2019-04-23T14:28:16.067Z,24.60
2019-04-23T14:38:23.555Z,24.10
2019-04-23T14:48:39.210Z,23.80
2019-04-23T14:54:03.071Z,24.20
2019-04-23T15:04:04.915Z,24.00
2019-04-23T15:09:36.155Z,24.00
2019-04-23T15:14:17.159Z,23.70
2019-04-23T15:19:45.370Z,23.50
2019-04-23T15:24:48.657Z,23.30
2019-04-23T15:29:39.251Z,23.50
2019-04-23T15:35:05.323Z,23.40
2019-04-23T15:40:08.011Z,23.00
2019-04-23T15:45:19.407Z,23.00
2019-04-23T15:55:27.561Z,23.00
2019-04-23T16:00:42.841Z,22.80
2019-04-23T16:05:21.612Z,22.70
2019-04-23T16:11:10.820Z,22.60
2019-04-23T16:16:06.207Z,22.60
2019-04-23T16:21:20.353Z,22.40
2019-04-23T16:26:22.987Z,22.50
2019-04-23T16:36:41.390Z,22.40
2019-04-23T16:41:54.243Z,22.20
2019-04-23T16:46:55.884Z,22.30
2019-04-23T16:52:08.231Z,22.10
2019-04-23T17:02:21.269Z,22.20
2019-04-23T17:07:27.264Z,22.10
2019-04-23T17:12:38.721Z,21.90
2019-04-23T17:17:46.908Z,21.80
2019-04-23T17:22:56.621Z,21.70
2019-04-23T17:28:11.168Z,21.70
2019-04-23T17:33:21.920Z,21.60
2019-04-23T17:43:35.106Z,21.50
2019-04-23T17:48:44.187Z,21.40
2019-04-23T17:53:59.866Z,21.30
2019-04-23T17:59:04.262Z,21.20
2019-04-23T18:04:29.141Z,21.20
2019-04-23T18:09:18.361Z,21.20
2019-04-23T18:14:17.825Z,21.20
2019-04-23T18:19:29.825Z,21.00
2019-04-23T18:25:06.202Z,21.00
2019-04-23T18:30:24.189Z,20.90
2019-04-23T18:35:24.305Z,20.70
2019-04-23T18:40:40.408Z,20.70
2019-04-23T18:45:54.014Z,20.60
2019-04-23T18:51:00.189Z,20.50
2019-04-23T18:56:06.298Z,20.50
2019-04-23T19:12:25.153Z,20.20
2019-04-23T19:22:44.462Z,20.10
2019-04-23T19:32:54.005Z,19.80
2019-04-23T19:38:01.548Z,19.80
2019-04-23T19:43:12.138Z,19.70
2019-04-23T19:48:25.668Z,19.50
2019-04-23T19:58:51.862Z,19.60
2019-04-23T20:03:50.034Z,19.60
2019-04-23T20:09:21.974Z,19.50
2019-04-23T20:14:02.573Z,19.40
2019-04-23T20:19:31.611Z,19.20
2019-04-23T20:24:41.602Z,19.20
2019-04-23T20:30:26.043Z,19.10
2019-04-23T20:40:30.540Z,19.10
2019-04-23T20:45:39.584Z,18.80
2019-04-23T20:50:44.467Z,18.80
2019-04-23T20:56:04.876Z,18.70
2019-04-23T21:11:24.937Z,18.60
2019-04-23T21:16:36.015Z,18.60
2019-04-23T21:22:02.506Z,18.60
2019-04-23T21:27:39.860Z,18.60
2019-04-23T21:32:49.463Z,18.50
2019-04-23T21:38:00.306Z,18.40
2019-04-23T21:43:10.475Z,18.40
2019-04-23T21:48:27.442Z,18.50
2019-04-23T21:53:25.861Z,18.50
2019-04-23T21:58:46.596Z,18.50
2019-04-23T22:04:06.791Z,18.40
2019-04-23T22:09:02.811Z,18.50
2019-04-23T22:29:38.034Z,18.30
2019-04-23T22:39:57.413Z,18.30
2019-04-23T22:45:07.545Z,18.20
2019-04-23T22:50:06.185Z,18.20
2019-04-23T23:00:16.680Z,18.00
2019-04-23T23:05:53.015Z,18.00
2019-04-23T23:15:55.932Z,17.90
2019-04-23T23:26:09.326Z,17.50
2019-04-23T23:31:18.186Z,17.40
2019-04-23T23:36:31.174Z,17.40
2019-04-23T23:46:56.300Z,17.40
2019-04-23T23:51:54.022Z,17.30
2019-04-23T23:57:04.052Z,17.20
